sensor_id;sensor_type;location;lat;lon;timestamp;P1;durP1;ratioP1;P2;durP2;ratioP2
71423;SDS011;59240;51.370;-0.486;2023-03-04T00:01:32;6.88;;;0.60;;
71423;SDS011;59240;51.370;-0.486;2023-03-04T00:03:59;6.30;;;0.77;;
71423;SDS011;59240;51.370;-0.486;2023-03-04T00:06:26;11.93;;;1.02;;
71423;SDS011;59240;51.370;-0.486;2023-03-04T00:08:53;8.27;;;0.98;;
71423;SDS011;59240;51.370;-0.486;2023-03-04T00:11:20;10.07;;;0.67;;
71423;SDS011;59240;51.370;-0.486;2023-03-04T00:13:46;6.85;;;1.00;;
71423;SDS011;59240;51.370;-0.486;2023-03-04T00:16:13;8.55;;;0.68;;
71423;SDS011;59240;51.370;-0.486;2023-03-04T00:18:40;5.05;;;0.60;;
71423;SDS011;59240;51.370;-0.486;2023-03-04T00:21:06;4.03;;;0.60;;
71423;SDS011;59240;51.370;-0.486;2023-03-04T00:23:33;8.10;;;0.80;;
71423;SDS011;59240;51.370;-0.486;2023-03-04T00:26:00;8.50;;;0.68;;
71423;SDS011;59240;51.370;-0.486;2023-03-04T00:28:26;6.32;;;0.85;;
71423;SDS011;59240;51.370;-0.486;2023-03-04T00:30:53;16.70;;;0.90;;
71423;SDS011;59240;51.370;-0.486;2023-03-04T00:33:20;6.30;;;0.68;;
71423;SDS011;59240;51.370;-0.486;2023-03-04T00:35:46;8.03;;;1.53;;
71423;SDS011;59240;51.370;-0.486;2023-03-04T00:38:13;9.90;;;0.70;;
71423;SDS011;59240;51.370;-0.486;2023-03-04T00:40:40;7.90;;;1.00;;
71423;SDS011;59240;51.370;-0.486;2023-03-04T00:43:07;5.97;;;0.75;;
71423;SDS011;59240;51.370;-0.486;2023-03-04T00:45:33;9.95;;;1.05;;
71423;SDS011;59240;51.370;-0.486;2023-03-04T00:48:00;10.63;;;0.90;;
71423;SDS011;59240;51.370;-0.486;2023-03-04T00:50:26;7.25;;;0.80;;
71423;SDS011;59240;51.370;-0.486;2023-03-04T00:52:53;9.00;;;0.93;;
71423;SDS011;59240;51.370;-0.486;2023-03-04T00:55:20;7.93;;;0.73;;
71423;SDS011;59240;51.370;-0.486;2023-03-04T00:57:46;15.07;;;1.20;;
71423;SDS011;59240;51.370;-0.486;2023-03-04T01:00:13;7.93;;;1.07;;
71423;SDS011;59240;51.370;-0.486;2023-03-04T01:02:40;4.80;;;0.80;;
71423;SDS011;59240;51.370;-0.486;2023-03-04T01:05:07;8.30;;;1.20;;
71423;SDS011;59240;51.370;-0.486;2023-03-04T01:07:34;11.93;;;1.60;;
71423;SDS011;59240;51.370;-0.486;2023-03-04T01:10:01;7.43;;;0.85;;
71423;SDS011;59240;51.370;-0.486;2023-03-04T01:12:28;3.63;;;0.57;;
71423;SDS011;59240;51.370;-0.486;2023-03-04T01:14:54;8.95;;;0.98;;
71423;SDS011;59240;51.370;-0.486;2023-03-04T01:17:21;7.15;;;0.77;;
71423;SDS011;59240;51.370;-0.486;2023-03-04T01:19:48;7.90;;;0.80;;
71423;SDS011;59240;51.370;-0.486;2023-03-04T01:22:14;9.45;;;1.10;;
71423;SDS011;59240;51.370;-0.486;2023-03-04T01:24:42;10.43;;;1.13;;
71423;SDS011;59240;51.370;-0.486;2023-03-04T01:27:08;6.85;;;1.15;;
71423;SDS011;59240;51.370;-0.486;2023-03-04T01:29:35;10.95;;;0.85;;
71423;SDS011;59240;51.370;-0.486;2023-03-04T01:32:01;7.10;;;0.60;;
71423;SDS011;59240;51.370;-0.486;2023-03-04T01:34:28;5.57;;;0.77;;
71423;SDS011;59240;51.370;-0.486;2023-03-04T01:36:55;5.53;;;0.47;;
71423;SDS011;59240;51.370;-0.486;2023-03-04T01:39:22;6.63;;;1.02;;
71423;SDS011;59240;51.370;-0.486;2023-03-04T01:41:48;9.88;;;1.42;;
71423;SDS011;59240;51.370;-0.486;2023-03-04T01:44:15;6.40;;;0.98;;
71423;SDS011;59240;51.370;-0.486;2023-03-04T01:46:43;14.52;;;1.08;;
71423;SDS011;59240;51.370;-0.486;2023-03-04T01:49:14;5.53;;;0.80;;
71423;SDS011;59240;51.370;-0.486;2023-03-04T01:51:42;5.78;;;0.70;;
71423;SDS011;59240;51.370;-0.486;2023-03-04T01:54:11;8.60;;;0.75;;
71423;SDS011;59240;51.370;-0.486;2023-03-04T01:56:38;6.93;;;0.85;;
71423;SDS011;59240;51.370;-0.486;2023-03-04T01:59:10;6.63;;;0.80;;
71423;SDS011;59240;51.370;-0.486;2023-03-04T02:01:43;7.70;;;1.27;;
71423;SDS011;59240;51.370;-0.486;2023-03-04T02:04:21;8.90;;;1.02;;
71423;SDS011;59240;51.370;-0.486;2023-03-04T02:06:50;8.27;;;0.80;;
71423;SDS011;59240;51.370;-0.486;2023-03-04T02:09:18;4.57;;;0.75;;
71423;SDS011;59240;51.370;-0.486;2023-03-04T02:11:46;7.68;;;1.35;;
71423;SDS011;59240;51.370;-0.486;2023-03-04T02:14:15;7.20;;;0.80;;
71423;SDS011;59240;51.370;-0.486;2023-03-04T02:16:43;6.85;;;0.55;;
71423;SDS011;59240;51.370;-0.486;2023-03-04T02:19:17;6.32;;;0.65;;
71423;SDS011;59240;51.370;-0.486;2023-03-04T02:21:53;10.15;;;0.80;;
71423;SDS011;59240;51.370;-0.486;2023-03-04T02:24:26;12.05;;;0.95;;
71423;SDS011;59240;51.370;-0.486;2023-03-04T02:26:57;7.03;;;0.70;;
71423;SDS011;59240;51.370;-0.486;2023-03-04T02:29:24;8.15;;;0.80;;
71423;SDS011;59240;51.370;-0.486;2023-03-04T02:31:52;7.65;;;0.77;;
71423;SDS011;59240;51.370;-0.486;2023-03-04T02:34:39;6.65;;;0.70;;
71423;SDS011;59240;51.370;-0.486;2023-03-04T02:37:11;4.55;;;0.40;;
71423;SDS011;59240;51.370;-0.486;2023-03-04T02:39:39;5.17;;;0.40;;
71423;SDS011;59240;51.370;-0.486;2023-03-04T02:42:08;5.47;;;0.70;;
71423;SDS011;59240;51.370;-0.486;2023-03-04T02:44:36;5.93;;;0.70;;
71423;SDS011;59240;51.370;-0.486;2023-03-04T02:47:05;4.10;;;0.40;;
71423;SDS011;59240;51.370;-0.486;2023-03-04T02:49:35;4.47;;;0.73;;
71423;SDS011;59240;51.370;-0.486;2023-03-04T02:52:07;5.73;;;0.50;;
71423;SDS011;59240;51.370;-0.486;2023-03-04T02:54:35;3.65;;;0.47;;
71423;SDS011;59240;51.370;-0.486;2023-03-04T02:57:04;4.72;;;0.55;;
71423;SDS011;59240;51.370;-0.486;2023-03-04T02:59:36;8.02;;;1.25;;
71423;SDS011;59240;51.370;-0.486;2023-03-04T03:02:04;7.38;;;0.77;;
71423;SDS011;59240;51.370;-0.486;2023-03-04T03:04:32;9.80;;;1.03;;
71423;SDS011;59240;51.370;-0.486;2023-03-04T03:06:59;3.30;;;0.50;;
71423;SDS011;59240;51.370;-0.486;2023-03-04T03:09:26;9.68;;;1.02;;
71423;SDS011;59240;51.370;-0.486;2023-03-04T03:11:52;7.03;;;0.73;;
71423;SDS011;59240;51.370;-0.486;2023-03-04T03:14:19;5.28;;;0.52;;
71423;SDS011;59240;51.370;-0.486;2023-03-04T03:16:46;4.60;;;0.43;;
71423;SDS011;59240;51.370;-0.486;2023-03-04T03:19:12;4.40;;;0.40;;
71423;SDS011;59240;51.370;-0.486;2023-03-04T03:21:39;9.25;;;0.60;;
71423;SDS011;59240;51.370;-0.486;2023-03-04T03:24:06;8.63;;;0.85;;
71423;SDS011;59240;51.370;-0.486;2023-03-04T03:26:33;10.88;;;1.50;;
71423;SDS011;59240;51.370;-0.486;2023-03-04T03:29:00;7.77;;;0.30;;
71423;SDS011;59240;51.370;-0.486;2023-03-04T03:31:27;10.77;;;0.82;;
71423;SDS011;59240;51.370;-0.486;2023-03-04T03:33:53;6.32;;;0.75;;
71423;SDS011;59240;51.370;-0.486;2023-03-04T03:36:20;5.80;;;0.55;;
71423;SDS011;59240;51.370;-0.486;2023-03-04T03:38:47;7.63;;;0.55;;
71423;SDS011;59240;51.370;-0.486;2023-03-04T03:41:13;6.63;;;0.70;;
71423;SDS011;59240;51.370;-0.486;2023-03-04T03:43:40;8.20;;;0.40;;
71423;SDS011;59240;51.370;-0.486;2023-03-04T03:46:07;11.55;;;0.70;;
71423;SDS011;59240;51.370;-0.486;2023-03-04T03:48:33;7.82;;;0.70;;
71423;SDS011;59240;51.370;-0.486;2023-03-04T03:51:00;11.18;;;0.73;;
71423;SDS011;59240;51.370;-0.486;2023-03-04T03:53:27;6.20;;;0.50;;
71423;SDS011;59240;51.370;-0.486;2023-03-04T03:55:53;7.07;;;0.93;;
71423;SDS011;59240;51.370;-0.486;2023-03-04T03:58:20;6.68;;;0.55;;
71423;SDS011;59240;51.370;-0.486;2023-03-04T04:00:48;10.13;;;0.70;;
71423;SDS011;59240;51.370;-0.486;2023-03-04T04:03:14;7.05;;;0.73;;
71423;SDS011;59240;51.370;-0.486;2023-03-04T04:05:42;7.80;;;0.50;;
71423;SDS011;59240;51.370;-0.486;2023-03-04T04:08:12;5.95;;;0.40;;
71423;SDS011;59240;51.370;-0.486;2023-03-04T04:10:40;3.63;;;0.30;;
71423;SDS011;59240;51.370;-0.486;2023-03-04T04:13:07;5.47;;;0.38;;
71423;SDS011;59240;51.370;-0.486;2023-03-04T04:15:34;5.07;;;0.52;;
71423;SDS011;59240;51.370;-0.486;2023-03-04T04:18:01;2.10;;;0.27;;
71423;SDS011;59240;51.370;-0.486;2023-03-04T04:20:28;4.82;;;0.57;;
71423;SDS011;59240;51.370;-0.486;2023-03-04T04:22:55;10.75;;;0.80;;
71423;SDS011;59240;51.370;-0.486;2023-03-04T04:25:22;9.75;;;1.00;;
71423;SDS011;59240;51.370;-0.486;2023-03-04T04:27:48;7.45;;;0.60;;
71423;SDS011;59240;51.370;-0.486;2023-03-04T04:30:15;4.10;;;0.70;;
71423;SDS011;59240;51.370;-0.486;2023-03-04T04:32:43;11.20;;;0.70;;
71423;SDS011;59240;51.370;-0.486;2023-03-04T04:35:10;4.82;;;0.60;;
71423;SDS011;59240;51.370;-0.486;2023-03-04T04:37:36;7.28;;;0.65;;
71423;SDS011;59240;51.370;-0.486;2023-03-04T04:40:03;7.88;;;0.57;;
71423;SDS011;59240;51.370;-0.486;2023-03-04T04:42:30;10.47;;;1.10;;
71423;SDS011;59240;51.370;-0.486;2023-03-04T04:44:57;8.23;;;0.50;;
71423;SDS011;59240;51.370;-0.486;2023-03-04T04:47:23;9.73;;;0.75;;
71423;SDS011;59240;51.370;-0.486;2023-03-04T04:49:50;6.30;;;0.70;;
71423;SDS011;59240;51.370;-0.486;2023-03-04T04:52:17;7.70;;;0.60;;
71423;SDS011;59240;51.370;-0.486;2023-03-04T04:54:44;8.73;;;0.60;;
71423;SDS011;59240;51.370;-0.486;2023-03-04T04:57:11;6.50;;;0.70;;
71423;SDS011;59240;51.370;-0.486;2023-03-04T04:59:37;5.35;;;0.57;;
71423;SDS011;59240;51.370;-0.486;2023-03-04T05:02:04;11.00;;;0.80;;
71423;SDS011;59240;51.370;-0.486;2023-03-04T05:04:30;6.55;;;0.82;;
71423;SDS011;59240;51.370;-0.486;2023-03-04T05:06:57;7.47;;;0.70;;
71423;SDS011;59240;51.370;-0.486;2023-03-04T05:09:24;8.68;;;1.00;;
71423;SDS011;59240;51.370;-0.486;2023-03-04T05:11:50;11.57;;;0.80;;
71423;SDS011;59240;51.370;-0.486;2023-03-04T05:14:17;6.20;;;0.60;;
71423;SDS011;59240;51.370;-0.486;2023-03-04T05:16:44;7.43;;;0.43;;
71423;SDS011;59240;51.370;-0.486;2023-03-04T05:19:10;9.63;;;1.13;;
71423;SDS011;59240;51.370;-0.486;2023-03-04T05:21:38;4.03;;;0.40;;
71423;SDS011;59240;51.370;-0.486;2023-03-04T05:24:04;8.23;;;0.70;;
71423;SDS011;59240;51.370;-0.486;2023-03-04T05:26:32;5.50;;;0.40;;
71423;SDS011;59240;51.370;-0.486;2023-03-04T05:28:58;7.70;;;0.52;;
71423;SDS011;59240;51.370;-0.486;2023-03-04T05:31:25;5.33;;;0.80;;
71423;SDS011;59240;51.370;-0.486;2023-03-04T05:33:52;9.85;;;0.85;;
71423;SDS011;59240;51.370;-0.486;2023-03-04T05:36:18;5.05;;;0.50;;
71423;SDS011;59240;51.370;-0.486;2023-03-04T05:38:46;7.32;;;0.45;;
71423;SDS011;59240;51.370;-0.486;2023-03-04T05:41:12;8.15;;;0.52;;
71423;SDS011;59240;51.370;-0.486;2023-03-04T05:43:39;10.17;;;0.70;;
71423;SDS011;59240;51.370;-0.486;2023-03-04T05:46:10;3.70;;;0.50;;
71423;SDS011;59240;51.370;-0.486;2023-03-04T05:48:40;8.57;;;0.88;;
71423;SDS011;59240;51.370;-0.486;2023-03-04T05:51:08;8.02;;;0.55;;
71423;SDS011;59240;51.370;-0.486;2023-03-04T05:53:35;4.35;;;0.80;;
71423;SDS011;59240;51.370;-0.486;2023-03-04T05:56:05;3.80;;;0.50;;
71423;SDS011;59240;51.370;-0.486;2023-03-04T05:58:34;4.90;;;0.50;;
71423;SDS011;59240;51.370;-0.486;2023-03-04T06:01:01;8.27;;;0.75;;
71423;SDS011;59240;51.370;-0.486;2023-03-04T06:03:28;9.55;;;0.85;;
71423;SDS011;59240;51.370;-0.486;2023-03-04T06:05:55;5.47;;;0.68;;
71423;SDS011;59240;51.370;-0.486;2023-03-04T06:08:22;5.10;;;0.70;;
71423;SDS011;59240;51.370;-0.486;2023-03-04T06:10:51;4.93;;;0.80;;
71423;SDS011;59240;51.370;-0.486;2023-03-04T06:13:18;10.30;;;0.90;;
71423;SDS011;59240;51.370;-0.486;2023-03-04T06:15:45;3.83;;;0.55;;
71423;SDS011;59240;51.370;-0.486;2023-03-04T06:18:12;6.85;;;0.93;;
71423;SDS011;59240;51.370;-0.486;2023-03-04T06:20:39;5.30;;;0.77;;
71423;SDS011;59240;51.370;-0.486;2023-03-04T06:23:07;5.38;;;1.20;;
71423;SDS011;59240;51.370;-0.486;2023-03-04T06:25:33;9.63;;;1.33;;
71423;SDS011;59240;51.370;-0.486;2023-03-04T06:28:00;7.30;;;0.80;;
71423;SDS011;59240;51.370;-0.486;2023-03-04T06:30:26;6.47;;;0.90;;
71423;SDS011;59240;51.370;-0.486;2023-03-04T06:32:53;4.93;;;0.90;;
71423;SDS011;59240;51.370;-0.486;2023-03-04T06:35:20;12.63;;;1.02;;
71423;SDS011;59240;51.370;-0.486;2023-03-04T06:37:47;6.28;;;1.02;;
71423;SDS011;59240;51.370;-0.486;2023-03-04T06:40:14;6.15;;;0.77;;
71423;SDS011;59240;51.370;-0.486;2023-03-04T06:42:41;7.03;;;0.85;;
71423;SDS011;59240;51.370;-0.486;2023-03-04T06:45:08;6.93;;;0.70;;
71423;SDS011;59240;51.370;-0.486;2023-03-04T06:47:36;8.10;;;1.10;;
71423;SDS011;59240;51.370;-0.486;2023-03-04T06:50:03;6.80;;;0.95;;
71423;SDS011;59240;51.370;-0.486;2023-03-04T06:52:32;5.20;;;0.70;;
71423;SDS011;59240;51.370;-0.486;2023-03-04T06:54:59;10.48;;;1.38;;
71423;SDS011;59240;51.370;-0.486;2023-03-04T06:57:26;5.73;;;0.80;;
71423;SDS011;59240;51.370;-0.486;2023-03-04T06:59:53;5.35;;;0.93;;
71423;SDS011;59240;51.370;-0.486;2023-03-04T07:02:19;5.07;;;0.70;;
71423;SDS011;59240;51.370;-0.486;2023-03-04T07:04:46;7.80;;;0.60;;
71423;SDS011;59240;51.370;-0.486;2023-03-04T07:07:13;7.53;;;0.75;;
71423;SDS011;59240;51.370;-0.486;2023-03-04T07:09:40;3.90;;;0.47;;
71423;SDS011;59240;51.370;-0.486;2023-03-04T07:12:07;6.30;;;0.70;;
71423;SDS011;59240;51.370;-0.486;2023-03-04T07:14:36;3.83;;;0.50;;
71423;SDS011;59240;51.370;-0.486;2023-03-04T07:17:03;6.55;;;0.85;;
71423;SDS011;59240;51.370;-0.486;2023-03-04T07:19:29;4.70;;;0.60;;
71423;SDS011;59240;51.370;-0.486;2023-03-04T07:21:57;4.77;;;0.70;;
71423;SDS011;59240;51.370;-0.486;2023-03-04T07:24:23;5.72;;;1.10;;
71423;SDS011;59240;51.370;-0.486;2023-03-04T07:26:50;7.43;;;0.93;;
71423;SDS011;59240;51.370;-0.486;2023-03-04T07:29:20;10.90;;;0.80;;
71423;SDS011;59240;51.370;-0.486;2023-03-04T07:31:49;9.10;;;1.02;;
71423;SDS011;59240;51.370;-0.486;2023-03-04T07:34:24;6.33;;;1.00;;
71423;SDS011;59240;51.370;-0.486;2023-03-04T07:36:52;9.52;;;1.30;;
71423;SDS011;59240;51.370;-0.486;2023-03-04T07:39:23;6.85;;;1.58;;
71423;SDS011;59240;51.370;-0.486;2023-03-04T07:41:49;7.95;;;1.20;;
71423;SDS011;59240;51.370;-0.486;2023-03-04T07:44:16;5.43;;;1.05;;
71423;SDS011;59240;51.370;-0.486;2023-03-04T07:46:43;8.33;;;1.37;;
71423;SDS011;59240;51.370;-0.486;2023-03-04T07:49:11;5.82;;;1.17;;
71423;SDS011;59240;51.370;-0.486;2023-03-04T07:51:39;6.07;;;1.05;;
71423;SDS011;59240;51.370;-0.486;2023-03-04T07:54:05;7.30;;;1.25;;
71423;SDS011;59240;51.370;-0.486;2023-03-04T07:56:32;8.57;;;1.63;;
71423;SDS011;59240;51.370;-0.486;2023-03-04T07:58:59;8.33;;;1.27;;
71423;SDS011;59240;51.370;-0.486;2023-03-04T08:01:30;7.22;;;0.98;;
71423;SDS011;59240;51.370;-0.486;2023-03-04T08:03:59;6.90;;;1.25;;
71423;SDS011;59240;51.370;-0.486;2023-03-04T08:06:29;5.30;;;0.93;;
71423;SDS011;59240;51.370;-0.486;2023-03-04T08:08:58;6.38;;;1.17;;
71423;SDS011;59240;51.370;-0.486;2023-03-04T08:11:27;11.63;;;1.30;;
71423;SDS011;59240;51.370;-0.486;2023-03-04T08:13:55;9.38;;;1.50;;
71423;SDS011;59240;51.370;-0.486;2023-03-04T08:16:22;6.03;;;1.13;;
71423;SDS011;59240;51.370;-0.486;2023-03-04T08:18:56;6.82;;;1.13;;
71423;SDS011;59240;51.370;-0.486;2023-03-04T08:21:26;6.93;;;1.20;;
71423;SDS011;59240;51.370;-0.486;2023-03-04T08:23:56;5.77;;;0.90;;
71423;SDS011;59240;51.370;-0.486;2023-03-04T08:26:26;6.63;;;1.08;;
71423;SDS011;59240;51.370;-0.486;2023-03-04T08:28:55;7.80;;;1.08;;
71423;SDS011;59240;51.370;-0.486;2023-03-04T08:31:25;7.90;;;0.80;;
71423;SDS011;59240;51.370;-0.486;2023-03-04T08:33:52;8.77;;;1.17;;
71423;SDS011;59240;51.370;-0.486;2023-03-04T08:36:21;7.17;;;1.00;;
71423;SDS011;59240;51.370;-0.486;2023-03-04T08:38:48;7.22;;;0.95;;
71423;SDS011;59240;51.370;-0.486;2023-03-04T08:41:19;6.80;;;1.13;;
71423;SDS011;59240;51.370;-0.486;2023-03-04T08:43:52;8.50;;;1.02;;
71423;SDS011;59240;51.370;-0.486;2023-03-04T08:46:19;8.82;;;1.05;;
71423;SDS011;59240;51.370;-0.486;2023-03-04T08:48:46;4.10;;;0.87;;
71423;SDS011;59240;51.370;-0.486;2023-03-04T08:51:14;7.70;;;1.15;;
71423;SDS011;59240;51.370;-0.486;2023-03-04T08:53:46;10.80;;;1.40;;
71423;SDS011;59240;51.370;-0.486;2023-03-04T08:56:13;9.13;;;1.13;;
71423;SDS011;59240;51.370;-0.486;2023-03-04T08:58:40;4.47;;;0.60;;
71423;SDS011;59240;51.370;-0.486;2023-03-04T09:01:08;7.57;;;1.33;;
71423;SDS011;59240;51.370;-0.486;2023-03-04T09:03:42;6.57;;;1.20;;
71423;SDS011;59240;51.370;-0.486;2023-03-04T09:06:17;6.30;;;1.02;;
71423;SDS011;59240;51.370;-0.486;2023-03-04T09:08:44;8.85;;;1.42;;
71423;SDS011;59240;51.370;-0.486;2023-03-04T09:11:12;21.13;;;1.55;;
71423;SDS011;59240;51.370;-0.486;2023-03-04T09:13:40;6.47;;;0.90;;
71423;SDS011;59240;51.370;-0.486;2023-03-04T09:16:11;8.30;;;1.20;;
71423;SDS011;59240;51.370;-0.486;2023-03-04T09:18:40;7.35;;;1.15;;
71423;SDS011;59240;51.370;-0.486;2023-03-04T09:21:08;6.57;;;0.93;;
71423;SDS011;59240;51.370;-0.486;2023-03-04T09:23:35;9.52;;;1.00;;
71423;SDS011;59240;51.370;-0.486;2023-03-04T09:26:12;4.10;;;0.77;;
71423;SDS011;59240;51.370;-0.486;2023-03-04T09:28:54;8.48;;;1.33;;
71423;SDS011;59240;51.370;-0.486;2023-03-04T09:31:22;6.15;;;1.00;;
71423;SDS011;59240;51.370;-0.486;2023-03-04T09:33:50;8.27;;;1.42;;
71423;SDS011;59240;51.370;-0.486;2023-03-04T09:36:22;6.95;;;1.17;;
71423;SDS011;59240;51.370;-0.486;2023-03-04T09:38:49;10.83;;;1.20;;
71423;SDS011;59240;51.370;-0.486;2023-03-04T09:41:22;5.10;;;0.90;;
71423;SDS011;59240;51.370;-0.486;2023-03-04T09:43:59;5.65;;;1.20;;
71423;SDS011;59240;51.370;-0.486;2023-03-04T09:46:56;8.63;;;2.15;;
71423;SDS011;59240;51.370;-0.486;2023-03-04T09:49:37;6.75;;;1.35;;
71423;SDS011;59240;51.370;-0.486;2023-03-04T09:52:32;6.60;;;1.00;;
71423;SDS011;59240;51.370;-0.486;2023-03-04T09:58:35;6.95;;;1.70;;
71423;SDS011;59240;51.370;-0.486;2023-03-04T10:03:55;10.90;;;1.60;;
71423;SDS011;59240;51.370;-0.486;2023-03-04T10:06:28;5.20;;;1.37;;
71423;SDS011;59240;51.370;-0.486;2023-03-04T10:09:01;6.60;;;1.70;;
71423;SDS011;59240;51.370;-0.486;2023-03-04T10:16:52;6.53;;;1.40;;
71423;SDS011;59240;51.370;-0.486;2023-03-04T10:22:34;6.80;;;1.30;;
71423;SDS011;59240;51.370;-0.486;2023-03-04T10:25:14;6.03;;;0.70;;
71423;SDS011;59240;51.370;-0.486;2023-03-04T10:27:50;7.10;;;1.20;;
71423;SDS011;59240;51.370;-0.486;2023-03-04T10:33:28;5.17;;;0.80;;
71423;SDS011;59240;51.370;-0.486;2023-03-04T10:36:00;5.07;;;0.85;;
71423;SDS011;59240;51.370;-0.486;2023-03-04T10:38:32;4.40;;;0.80;;
71423;SDS011;59240;51.370;-0.486;2023-03-04T10:41:12;4.65;;;0.77;;
71423;SDS011;59240;51.370;-0.486;2023-03-04T10:43:42;7.00;;;1.20;;
71423;SDS011;59240;51.370;-0.486;2023-03-04T10:46:12;4.83;;;0.70;;
71423;SDS011;59240;51.370;-0.486;2023-03-04T10:48:42;4.35;;;0.77;;
71423;SDS011;59240;51.370;-0.486;2023-03-04T10:51:20;4.65;;;0.70;;
71423;SDS011;59240;51.370;-0.486;2023-03-04T10:53:49;3.38;;;0.60;;
71423;SDS011;59240;51.370;-0.486;2023-03-04T11:01:59;6.65;;;0.80;;
71423;SDS011;59240;51.370;-0.486;2023-03-04T11:04:31;5.93;;;1.10;;
71423;SDS011;59240;51.370;-0.486;2023-03-04T11:07:14;5.95;;;1.17;;
71423;SDS011;59240;51.370;-0.486;2023-03-04T11:09:44;5.35;;;1.10;;
71423;SDS011;59240;51.370;-0.486;2023-03-04T11:12:38;4.87;;;1.43;;
71423;SDS011;59240;51.370;-0.486;2023-03-04T11:15:18;4.68;;;0.70;;
71423;SDS011;59240;51.370;-0.486;2023-03-04T11:17:53;8.38;;;1.30;;
71423;SDS011;59240;51.370;-0.486;2023-03-04T11:20:36;4.65;;;0.68;;
71423;SDS011;59240;51.370;-0.486;2023-03-04T11:23:11;4.88;;;0.60;;
71423;SDS011;59240;51.370;-0.486;2023-03-04T11:25:49;3.93;;;0.63;;
71423;SDS011;59240;51.370;-0.486;2023-03-04T11:28:29;8.38;;;1.90;;
71423;SDS011;59240;51.370;-0.486;2023-03-04T11:31:05;5.95;;;1.38;;
71423;SDS011;59240;51.370;-0.486;2023-03-04T11:39:22;7.70;;;1.47;;
71423;SDS011;59240;51.370;-0.486;2023-03-04T11:42:10;8.10;;;1.27;;
71423;SDS011;59240;51.370;-0.486;2023-03-04T11:44:49;6.30;;;1.25;;
71423;SDS011;59240;51.370;-0.486;2023-03-04T11:47:38;7.47;;;1.30;;
71423;SDS011;59240;51.370;-0.486;2023-03-04T11:50:17;7.10;;;1.20;;
71423;SDS011;59240;51.370;-0.486;2023-03-04T11:52:57;6.20;;;1.00;;
71423;SDS011;59240;51.370;-0.486;2023-03-04T12:01:50;5.65;;;1.05;;
71423;SDS011;59240;51.370;-0.486;2023-03-04T12:04:19;4.53;;;0.60;;
71423;SDS011;59240;51.370;-0.486;2023-03-04T12:09:24;8.68;;;1.67;;
71423;SDS011;59240;51.370;-0.486;2023-03-04T12:32:17;5.65;;;1.23;;
71423;SDS011;59240;51.370;-0.486;2023-03-04T12:35:12;5.10;;;0.93;;
71423;SDS011;59240;51.370;-0.486;2023-03-04T12:38:03;6.85;;;1.35;;
71423;SDS011;59240;51.370;-0.486;2023-03-04T12:41:36;6.40;;;1.48;;
71423;SDS011;59240;51.370;-0.486;2023-03-04T12:47:49;5.50;;;1.00;;
71423;SDS011;59240;51.370;-0.486;2023-03-04T12:56:22;6.95;;;1.67;;
71423;SDS011;59240;51.370;-0.486;2023-03-04T12:58:54;3.97;;;0.73;;
71423;SDS011;59240;51.370;-0.486;2023-03-04T13:01:37;6.93;;;0.85;;
71423;SDS011;59240;51.370;-0.486;2023-03-04T13:04:18;5.40;;;1.07;;
71423;SDS011;59240;51.370;-0.486;2023-03-04T13:09:28;5.60;;;1.10;;
71423;SDS011;59240;51.370;-0.486;2023-03-04T13:12:20;6.90;;;1.15;;
71423;SDS011;59240;51.370;-0.486;2023-03-04T13:22:57;6.70;;;1.30;;
71423;SDS011;59240;51.370;-0.486;2023-03-04T13:36:05;4.55;;;0.95;;
71423;SDS011;59240;51.370;-0.486;2023-03-04T13:38:58;5.80;;;0.98;;
71423;SDS011;59240;51.370;-0.486;2023-03-04T13:41:29;7.07;;;1.15;;
71423;SDS011;59240;51.370;-0.486;2023-03-04T13:44:00;8.60;;;1.27;;
71423;SDS011;59240;51.370;-0.486;2023-03-04T13:47:14;5.82;;;1.20;;
71423;SDS011;59240;51.370;-0.486;2023-03-04T13:58:43;6.57;;;1.23;;
71423;SDS011;59240;51.370;-0.486;2023-03-04T14:01:30;6.05;;;1.13;;
71423;SDS011;59240;51.370;-0.486;2023-03-04T14:04:20;7.85;;;1.42;;
71423;SDS011;59240;51.370;-0.486;2023-03-04T14:07:20;9.85;;;1.58;;
71423;SDS011;59240;51.370;-0.486;2023-03-04T14:13:19;8.97;;;2.40;;
71423;SDS011;59240;51.370;-0.486;2023-03-04T14:15:56;6.80;;;2.28;;
71423;SDS011;59240;51.370;-0.486;2023-03-04T14:18:45;11.38;;;3.25;;
71423;SDS011;59240;51.370;-0.486;2023-03-04T14:21:14;10.75;;;3.58;;
71423;SDS011;59240;51.370;-0.486;2023-03-04T14:24:04;8.13;;;2.17;;
71423;SDS011;59240;51.370;-0.486;2023-03-04T14:26:37;5.40;;;1.40;;
71423;SDS011;59240;51.370;-0.486;2023-03-04T14:29:28;5.93;;;1.15;;
71423;SDS011;59240;51.370;-0.486;2023-03-04T14:32:05;7.13;;;1.70;;
71423;SDS011;59240;51.370;-0.486;2023-03-04T14:34:36;10.20;;;3.85;;
71423;SDS011;59240;51.370;-0.486;2023-03-04T14:37:19;10.70;;;2.47;;
71423;SDS011;59240;51.370;-0.486;2023-03-04T14:40:09;6.10;;;1.30;;
71423;SDS011;59240;51.370;-0.486;2023-03-04T14:43:14;6.20;;;1.73;;
71423;SDS011;59240;51.370;-0.486;2023-03-04T14:45:44;6.07;;;1.90;;
71423;SDS011;59240;51.370;-0.486;2023-03-04T14:48:24;7.82;;;2.13;;
71423;SDS011;59240;51.370;-0.486;2023-03-04T14:50:59;7.85;;;2.15;;
71423;SDS011;59240;51.370;-0.486;2023-03-04T14:53:52;10.73;;;2.00;;
71423;SDS011;59240;51.370;-0.486;2023-03-04T14:56:42;6.60;;;1.60;;
71423;SDS011;59240;51.370;-0.486;2023-03-04T14:59:19;9.07;;;1.85;;
71423;SDS011;59240;51.370;-0.486;2023-03-04T15:01:53;8.18;;;1.70;;
71423;SDS011;59240;51.370;-0.486;2023-03-04T15:08:04;8.83;;;1.30;;
71423;SDS011;59240;51.370;-0.486;2023-03-04T15:10:51;9.02;;;1.77;;
71423;SDS011;59240;51.370;-0.486;2023-03-04T15:13:48;6.68;;;1.50;;
71423;SDS011;59240;51.370;-0.486;2023-03-04T15:16:56;10.40;;;3.30;;
71423;SDS011;59240;51.370;-0.486;2023-03-04T15:23:02;15.23;;;4.93;;
71423;SDS011;59240;51.370;-0.486;2023-03-04T15:25:33;9.60;;;2.70;;
71423;SDS011;59240;51.370;-0.486;2023-03-04T15:28:01;11.48;;;2.50;;
71423;SDS011;59240;51.370;-0.486;2023-03-04T15:30:33;13.65;;;3.60;;
71423;SDS011;59240;51.370;-0.486;2023-03-04T15:33:20;10.35;;;1.98;;
71423;SDS011;59240;51.370;-0.486;2023-03-04T15:35:57;9.70;;;1.90;;
71423;SDS011;59240;51.370;-0.486;2023-03-04T15:42:25;8.80;;;2.00;;
71423;SDS011;59240;51.370;-0.486;2023-03-04T15:46:04;6.82;;;1.42;;
71423;SDS011;59240;51.370;-0.486;2023-03-04T15:49:29;8.63;;;1.58;;
71423;SDS011;59240;51.370;-0.486;2023-03-04T15:52:24;8.20;;;2.13;;
71423;SDS011;59240;51.370;-0.486;2023-03-04T15:55:13;6.75;;;1.90;;
71423;SDS011;59240;51.370;-0.486;2023-03-04T15:57:48;5.45;;;1.63;;
71423;SDS011;59240;51.370;-0.486;2023-03-04T16:01:43;7.40;;;1.70;;
71423;SDS011;59240;51.370;-0.486;2023-03-04T16:05:17;7.65;;;1.88;;
71423;SDS011;59240;51.370;-0.486;2023-03-04T16:07:45;7.47;;;1.73;;
71423;SDS011;59240;51.370;-0.486;2023-03-04T16:10:25;6.38;;;1.52;;
71423;SDS011;59240;51.370;-0.486;2023-03-04T16:12:59;6.75;;;2.00;;
71423;SDS011;59240;51.370;-0.486;2023-03-04T16:15:27;6.95;;;1.70;;
71423;SDS011;59240;51.370;-0.486;2023-03-04T16:18:04;12.32;;;1.95;;
71423;SDS011;59240;51.370;-0.486;2023-03-04T16:20:36;8.47;;;1.70;;
71423;SDS011;59240;51.370;-0.486;2023-03-04T16:23:08;7.85;;;1.77;;
71423;SDS011;59240;51.370;-0.486;2023-03-04T16:25:42;6.85;;;2.22;;
71423;SDS011;59240;51.370;-0.486;2023-03-04T16:28:17;7.10;;;1.92;;
71423;SDS011;59240;51.370;-0.486;2023-03-04T16:30:44;7.38;;;1.95;;
71423;SDS011;59240;51.370;-0.486;2023-03-04T16:33:24;7.03;;;2.40;;
71423;SDS011;59240;51.370;-0.486;2023-03-04T16:35:55;7.00;;;2.20;;
71423;SDS011;59240;51.370;-0.486;2023-03-04T16:38:40;9.00;;;2.00;;
71423;SDS011;59240;51.370;-0.486;2023-03-04T16:41:11;7.53;;;1.88;;
71423;SDS011;59240;51.370;-0.486;2023-03-04T16:43:50;9.70;;;2.00;;
71423;SDS011;59240;51.370;-0.486;2023-03-04T16:46:27;10.30;;;2.00;;
71423;SDS011;59240;51.370;-0.486;2023-03-04T16:48:58;6.65;;;1.88;;
71423;SDS011;59240;51.370;-0.486;2023-03-04T16:51:34;8.70;;;2.15;;
71423;SDS011;59240;51.370;-0.486;2023-03-04T16:54:15;8.18;;;2.15;;
71423;SDS011;59240;51.370;-0.486;2023-03-04T16:56:53;8.75;;;2.30;;